Time;durP1;ratioP1;P1;durP2;ratioP2;P2;SDS_P1;SDS_P2;PMS_P1;PMS_P2;Temp;Humidity;BMP_temperature;BMP_pressure;BME280_temperature;BME280_humidity;BME280_pressure;Samples;Min_cycle;Max_cycle;Signal;HPM_P1;HPM_P2
2022/05/07 11:42:33;;;;;;;;;;;;;;;-140.72;100.00;51820.72;5092225;27;20050;-68
2022/05/07 11:47:49;;;;;;;;;;;;;;;-140.72;100.00;51824.78;5091611;28;20370;-67
2022/05/07 11:50:18;;;;;;;;;;;;;;;-140.72;100.00;51757.81;5090809;28;20007;-67
2022/05/07 11:52:43;;;;;;;;;;;;;;;-140.72;100.00;51672.63;5089367;28;19916;-67
2022/05/07 11:55:09;;;;;;;;;;;;;;;-140.72;100.00;51755.81;5090458;28;20264;-67
2022/05/07 11:57:35;;;;;;;;;;;;;;;-140.72;100.00;51770.00;5089089;28;19921;-67
2022/05/07 12:00:14;;;;;;;;;;;;;;;-140.72;100.00;51719.28;5090574;28;19916;-68
2022/05/07 12:02:40;;;;;;;;;;;;;;;-140.72;100.00;51920.13;5090356;28;19950;-67
2022/05/07 12:05:05;;;;;;;;;;;;;;;-140.72;100.00;51780.16;5090085;28;19917;-67
2022/05/07 12:07:40;;;;;;;;;;;;;;;-140.72;100.00;51830.88;5090154;28;20381;-66
2022/05/07 12:10:05;;;;;;;;;;;;;;;-140.72;100.00;51962.75;5090340;28;19985;-67
2022/05/07 12:12:30;;;;;;;;;;;;;;;-140.72;100.00;51999.25;5090356;28;19924;-66
2022/05/07 12:14:55;;;;;;;;;;;;;;;-140.72;100.00;52041.88;5090042;28;19924;-65
2022/05/07 12:20:05;;;;;;;;;;;;;;;-140.72;100.00;52106.78;5090557;28;20278;-67
2022/05/07 12:30:42;;;;;;;;;;;;;;;-140.72;100.00;51928.25;5090297;28;20329;-66
2022/05/07 12:33:07;;;;;;;;;;;;;;;-140.72;100.00;51879.56;5089756;28;19917;-67
2022/05/07 12:35:32;;;;;;;;;;;;;;;-140.72;100.00;51985.06;5088439;28;19923;-67
2022/05/07 12:37:57;;;;;;;;;;;;;;;-140.72;100.00;51820.72;5088447;28;19927;-67
2022/05/07 12:40:23;;;;;;;;;;;;;;;-140.72;100.00;51816.66;5093657;28;19959;-66
2022/05/07 12:42:48;;;;;;;;;;;;;;;-140.72;100.00;51747.69;5110078;28;19962;-67
2022/05/07 12:45:14;;;;;;;;;;;;;;;-140.72;100.00;51838.97;5110187;28;19916;-67
2022/05/07 12:47:39;;;;;;;;;;;;;;;-140.72;100.00;51796.38;5121841;27;19920;-67
2022/05/07 12:50:05;;;;;;;;;;;;;;;-140.72;100.00;51705.06;5130397;28;19915;-69
2022/05/07 12:52:30;;;;;;;;;;;;;;;-140.72;100.00;51928.25;5123089;28;20263;-67
2022/05/07 12:54:55;;;;;;;;;;;;;;;-140.72;100.00;52007.38;5116716;28;19916;-66
2022/05/07 12:57:21;;;;;;;;;;;;;;;-140.72;100.00;52041.88;5116567;28;19916;-66
2022/05/07 12:59:46;;;;;;;;;;;;;;;-140.72;100.00;51910.00;5116502;28;19938;-66
2022/05/07 13:02:12;;;;;;;;;;;;;;;-140.72;100.00;52011.44;5116439;28;19916;-66
2022/05/07 13:04:37;;;;;;;;;;;;;;;-140.72;100.00;51950.56;5116582;28;19916;-68
2022/05/07 13:07:03;;;;;;;;;;;;;;;-140.72;100.00;51869.41;5115166;28;19923;-66
2022/05/07 13:09:29;;;;;;;;;;;;;;;-140.72;100.00;51818.69;5115083;28;19920;-66
2022/05/07 13:11:54;;;;;;;;;;;;;;;-140.72;100.00;51822.75;5116407;28;20349;-67
2022/05/07 13:14:20;;;;;;;;;;;;;;;-140.72;100.00;51838.97;5116245;28;19916;-67
2022/05/07 13:16:46;;;;;;;;;;;;;;;-140.72;100.00;51920.13;5114973;28;20038;-68
2022/05/07 13:19:11;;;;;;;;;;;;;;;-140.72;100.00;51879.56;5116093;28;20011;-67
2022/05/07 13:21:36;;;;;;;;;;;;;;;-140.72;100.00;51883.63;5115945;28;19969;-69
2022/05/07 13:24:02;;;;;;;;;;;;;;;-140.72;100.00;51950.56;5116323;28;19916;-67
2022/05/07 13:26:27;;;;;;;;;;;;;;;-140.72;100.00;51903.91;5114685;28;19926;-67
2022/05/07 13:28:53;;;;;;;;;;;;;;;-140.72;100.00;51968.81;5116140;28;19922;-66
2022/05/07 13:31:18;;;;;;;;;;;;;;;-140.72;100.00;52066.22;5114852;28;19916;-66
2022/05/07 13:33:43;;;;;;;;;;;;;;;-140.72;100.00;52025.63;5115900;28;19962;-67
2022/05/07 13:36:08;;;;;;;;;;;;;;;-140.72;100.00;52147.38;5115828;28;19916;-67
2022/05/07 13:38:34;;;;;;;;;;;;;;;-140.72;100.00;52104.75;5115461;28;20382;-68
2022/05/07 13:41:00;;;;;;;;;;;;;;;-140.72;100.00;52088.53;5115612;28;20289;-66
2022/05/07 13:43:25;;;;;;;;;;;;;;;-140.72;100.00;52086.50;5115660;28;19916;-67
2022/05/07 13:45:51;;;;;;;;;;;;;;;-140.72;100.00;52104.75;5115655;28;19916;-66
2022/05/07 13:48:16;;;;;;;;;;;;;;;-140.72;100.00;52084.47;5097393;28;19923;-67
2022/05/07 13:50:42;;;;;;;;;;;;;;;-140.72;100.00;52106.78;5093862;28;20362;-67
2022/05/07 13:53:09;;;;;;;;;;;;;;;-140.72;100.00;52088.53;5095144;28;19938;-68
2022/05/07 13:55:34;;;;;;;;;;;;;;;-140.72;100.00;52074.34;5076922;28;19920;-66
2022/05/07 13:57:59;;;;;;;;;;;;;;;-140.72;100.00;52074.34;5095069;28;19942;-67
2022/05/07 14:00:24;;;;;;;;;;;;;;;-140.72;100.00;52086.50;5095104;28;20009;-67
2022/05/07 14:02:50;;;;;;;;;;;;;;;-140.72;100.00;52108.81;5093646;28;19931;-66
2022/05/07 14:05:16;;;;;;;;;;;;;;;-140.72;100.00;52125.06;5094071;28;20363;-66
2022/05/07 14:07:41;;;;;;;;;;;;;;;-140.72;100.00;52123.03;5094893;28;20375;-65
2022/05/07 14:10:07;;;;;;;;;;;;;;;-140.72;100.00;52131.16;5093420;28;19972;-67
2022/05/07 14:12:32;;;;;;;;;;;;;;;-140.72;100.00;52104.75;5094776;28;19958;-66
2022/05/07 14:14:58;;;;;;;;;;;;;;;-140.72;100.00;52090.56;5094689;28;19924;-66
2022/05/07 14:17:23;;;;;;;;;;;;;;;-140.72;100.00;52135.19;5094716;28;19916;-66
2022/05/07 14:19:52;;;;;;;;;;;;;;;-140.72;100.00;52118.97;5094687;28;19923;-66
2022/05/07 14:22:17;;;;;;;;;;;;;;;-140.72;100.00;52129.13;5094511;28;19916;-66
2022/05/07 14:24:43;;;;;;;;;;;;;;;-140.72;100.00;52179.84;5093135;28;19916;-69
2022/05/07 14:27:08;;;;;;;;;;;;;;;-140.72;100.00;52206.22;5094573;28;20011;-66
2022/05/07 14:29:34;;;;;;;;;;;;;;;-140.72;100.00;52202.16;5092778;28;20033;-66
2022/05/07 14:32:02;;;;;;;;;;;;;;;-140.72;100.00;52192.00;5092983;28;19920;-65
2022/05/07 14:34:27;;;;;;;;;;;;;;;-140.72;100.00;52212.31;5094512;28;19999;-65
2022/05/07 14:36:53;;;;;;;;;;;;;;;-140.72;100.00;52208.25;5094606;28;19956;-67
2022/05/07 14:39:18;;;;;;;;;;;;;;;-140.72;100.00;52204.19;5094210;28;19916;-69
2022/05/07 14:41:43;;;;;;;;;;;;;;;-140.72;100.00;52265.06;5094096;28;20019;-67
2022/05/07 14:44:09;;;;;;;;;;;;;;;-140.72;100.00;52246.78;5094060;28;19916;-66
2022/05/07 14:46:34;;;;;;;;;;;;;;;-140.72;100.00;52248.81;5096561;28;19916;-66
2022/05/07 14:49:00;;;;;;;;;;;;;;;-140.72;100.00;52196.06;5113110;28;20331;-67
2022/05/07 14:51:27;;;;;;;;;;;;;;;-140.72;100.00;52222.44;5113072;28;19916;-67
2022/05/07 14:53:53;;;;;;;;;;;;;;;-140.72;100.00;52263.03;5114269;28;19919;-67
2022/05/07 14:56:18;;;;;;;;;;;;;;;-140.72;100.00;52230.56;5113003;28;20037;-66
2022/05/07 14:58:43;;;;;;;;;;;;;;;-140.72;100.00;52181.88;5112740;28;19924;-66
2022/05/07 15:01:09;;;;;;;;;;;;;;;-140.72;100.00;52214.34;5114110;28;20469;-66
2022/05/07 15:03:34;;;;;;;;;;;;;;;-140.72;100.00;52210.28;5112855;28;19923;-66
2022/05/07 15:06:03;;;;;;;;;;;;;;;-140.72;100.00;52204.19;5114081;28;19924;-66
2022/05/07 15:11:12;;;;;;;;;;;;;;;-140.72;100.00;52206.22;5114532;28;19976;-67
2022/05/07 15:13:38;;;;;;;;;;;;;;;-140.72;100.00;52200.13;5114151;28;19952;-66
2022/05/07 15:16:03;;;;;;;;;;;;;;;-140.72;100.00;52216.34;5114105;28;19949;-67
2022/05/07 15:18:28;;;;;;;;;;;;;;;-140.72;100.00;52153.47;5113866;28;19916;-66
2022/05/07 15:20:53;;;;;;;;;;;;;;;-140.72;100.00;52179.84;5113948;28;20014;-67
2022/05/07 15:23:19;;;;;;;;;;;;;;;-140.72;100.00;52173.75;5113758;28;20026;-68
2022/05/07 15:25:44;;;;;;;;;;;;;;;-140.72;100.00;52194.03;5113756;28;19923;-67
2022/05/07 15:28:10;;;;;;;;;;;;;;;-140.72;100.00;52171.72;5112616;28;19920;-67
2022/05/07 15:30:35;;;;;;;;;;;;;;;-140.72;100.00;52165.63;5112299;28;19916;-66
2022/05/07 15:38:28;;;;;;;;;;;;;;;-140.72;100.00;52131.16;5115095;28;19922;-67
2022/05/07 15:40:53;;;;;;;;;;;;;;;-140.72;100.00;52177.81;5113707;28;20029;-66
2022/05/07 15:43:19;;;;;;;;;;;;;;;-140.72;100.00;52192.00;5113415;28;19988;-66
2022/05/07 15:45:45;;;;;;;;;;;;;;;-140.72;100.00;52175.78;5114146;28;19984;-69
2022/05/07 15:48:11;;;;;;;;;;;;;;;-140.72;100.00;52187.97;5097730;28;19916;-66
2022/05/07 15:50:38;;;;;;;;;;;;;;;-140.72;100.00;52218.38;5093580;28;19923;-65
2022/05/07 15:53:03;;;;;;;;;;;;;;;-140.72;100.00;52196.06;5093649;28;19923;-66
2022/05/07 15:55:28;;;;;;;;;;;;;;;-140.72;100.00;52177.81;5093401;28;19946;-67
2022/05/07 15:57:53;;;;;;;;;;;;;;;-140.72;100.00;52204.19;5093752;28;19916;-66
2022/05/07 16:00:19;;;;;;;;;;;;;;;-140.72;100.00;52177.81;5088805;28;19921;-66
2022/05/07 16:02:44;;;;;;;;;;;;;;;-140.72;100.00;52212.31;5092753;28;19927;-73
2022/05/07 16:05:09;;;;;;;;;;;;;;;-140.72;100.00;52196.06;5093289;28;19927;-69
2022/05/07 16:10:44;;;;;;;;;;;;;;;-140.72;100.00;52090.56;5093527;28;19923;-71
2022/05/07 16:13:09;;;;;;;;;;;;;;;-140.72;100.00;52102.75;5093858;28;20011;-67
2022/05/07 16:15:35;;;;;;;;;;;;;;;-140.72;100.00;52074.34;5093357;28;20409;-67
2022/05/07 16:18:00;;;;;;;;;;;;;;;-140.72;100.00;52098.69;5085906;28;19971;-66
2022/05/07 16:20:25;;;;;;;;;;;;;;;-140.72;100.00;52019.56;5082642;28;19920;-68
2022/05/07 16:25:34;;;;;;;;;;;;;;;-140.72;100.00;51989.13;5083052;28;19973;-67
2022/05/07 16:27:59;;;;;;;;;;;;;;;-140.72;100.00;51997.22;5083074;28;19924;-68
2022/05/07 16:30:25;;;;;;;;;;;;;;;-140.72;100.00;52029.69;5086934;28;19920;-68
2022/05/07 16:32:51;;;;;;;;;;;;;;;-140.72;100.00;52041.88;5085685;28;20379;-67
2022/05/07 16:35:16;;;;;;;;;;;;;;;-140.72;100.00;52056.06;5084072;28;19982;-66
2022/05/07 16:37:41;;;;;;;;;;;;;;;-140.72;100.00;52031.72;5078283;28;19916;-67
2022/05/07 16:40:10;;;;;;;;;;;;;;;-140.72;100.00;51985.06;5076869;28;19928;-67
2022/05/07 16:42:35;;;;;;;;;;;;;;;-140.72;100.00;52001.28;5083170;28;19955;-67
2022/05/07 16:45:01;;;;;;;;;;;;;;;-140.72;100.00;52096.66;5081042;28;19964;-67
2022/05/07 16:47:26;;;;;;;;;;;;;;;-140.72;100.00;52208.25;5076322;28;19916;-67
2022/05/07 16:49:51;;;;;;;;;;;;;;;-140.72;100.00;52169.69;5082318;28;19966;-67
2022/05/07 16:52:16;;;;;;;;;;;;;;;-140.72;100.00;52271.16;5088300;28;19916;-70
2022/05/07 16:54:42;;;;;;;;;;;;;;;-140.72;100.00;52301.59;5079876;28;19920;-70
2022/05/07 16:57:10;;;;;;;;;;;;;;;-140.72;100.00;52281.28;5085695;28;19920;-66
2022/05/07 16:59:35;;;;;;;;;;;;;;;-140.72;100.00;52313.75;5081516;28;20386;-67
2022/05/07 17:02:00;;;;;;;;;;;;;;;-140.72;100.00;52301.59;5078005;28;19920;-67
2022/05/07 17:04:26;;;;;;;;;;;;;;;-140.72;100.00;52315.78;5079989;28;19920;-67
2022/05/07 17:06:51;;;;;;;;;;;;;;;-140.72;100.00;52321.88;5089799;28;19966;-69
2022/05/07 17:09:16;;;;;;;;;;;;;;;-140.72;100.00;52325.94;5091593;28;20406;-68
2022/05/07 17:11:41;;;;;;;;;;;;;;;-140.72;100.00;52305.63;5092643;28;19928;-67
2022/05/07 17:14:07;;;;;;;;;;;;;;;-140.72;100.00;52344.19;5084791;28;19916;-67
2022/05/07 17:16:32;;;;;;;;;;;;;;;-140.72;100.00;52293.47;5078876;28;19920;-67
2022/05/07 17:18:57;;;;;;;;;;;;;;;-140.72;100.00;52295.50;5074560;28;20429;-68
2022/05/07 17:21:23;;;;;;;;;;;;;;;-140.72;100.00;52336.06;5073740;28;19924;-67
2022/05/07 17:23:48;;;;;;;;;;;;;;;-140.72;100.00;52378.69;5085707;28;19928;-70
2022/05/07 17:26:13;;;;;;;;;;;;;;;-140.72;100.00;52358.41;5074933;28;19916;-67
2022/05/07 17:28:39;;;;;;;;;;;;;;;-140.72;100.00;52346.22;5080216;28;20434;-67
2022/05/07 17:31:04;;;;;;;;;;;;;;;-140.72;100.00;52281.28;5084422;28;19920;-67
2022/05/07 17:33:31;;;;;;;;;;;;;;;-140.72;100.00;52303.59;5081249;28;19972;-66
2022/05/07 17:35:57;;;;;;;;;;;;;;;-140.72;100.00;52354.34;5081378;28;20239;-68
2022/05/07 17:38:22;;;;;;;;;;;;;;;-140.72;100.00;52307.66;5080916;28;19920;-68
2022/05/07 17:40:48;;;;;;;;;;;;;;;-140.72;100.00;52352.31;5085548;28;19963;-68
2022/05/07 17:43:16;;;;;;;;;;;;;;;-140.72;100.00;52346.22;5077694;28;19916;-68
2022/05/07 17:45:41;;;;;;;;;;;;;;;-140.72;100.00;52311.72;5074798;28;19928;-68
2022/05/07 17:50:50;;;;;;;;;;;;;;;-140.72;100.00;52356.38;5079551;28;20074;-70
2022/05/07 17:53:15;;;;;;;;;;;;;;;-140.72;100.00;52354.34;5091475;28;19955;-67
2022/05/07 17:55:42;;;;;;;;;;;;;;;-140.72;100.00;52374.63;5083067;28;19920;-68
2022/05/07 17:58:07;;;;;;;;;;;;;;;-140.72;100.00;52346.22;5088534;28;19932;-66
2022/05/07 18:00:32;;;;;;;;;;;;;;;-140.72;100.00;52370.56;5088626;28;19917;-67
2022/05/07 18:02:58;;;;;;;;;;;;;;;-140.72;100.00;52364.47;5072245;28;19916;-67
2022/05/07 18:05:23;;;;;;;;;;;;;;;-140.72;100.00;52374.63;5079645;28;19916;-67
2022/05/07 18:07:49;;;;;;;;;;;;;;;-140.72;100.00;52364.47;5072963;28;19935;-68
2022/05/07 18:10:14;;;;;;;;;;;;;;;-140.72;100.00;52378.69;5074333;28;20367;-68
2022/05/07 18:12:39;;;;;;;;;;;;;;;-140.72;100.00;52403.03;5078458;28;19973;-68
2022/05/07 18:15:05;;;;;;;;;;;;;;;-140.72;100.00;52390.84;5075270;28;19977;-66
2022/05/07 18:17:31;;;;;;;;;;;;;;;-140.72;100.00;52409.13;5074047;28;19917;-68
2022/05/07 18:19:56;;;;;;;;;;;;;;;-140.72;100.00;52403.03;5081538;28;19920;-68
2022/05/07 18:22:22;;;;;;;;;;;;;;;-140.72;100.00;52390.84;5081377;28;19935;-70
2022/05/07 18:24:47;;;;;;;;;;;;;;;-140.72;100.00;52384.78;5074823;28;19924;-66
2022/05/07 18:27:12;;;;;;;;;;;;;;;-140.72;100.00;52419.28;5080360;28;20409;-66
2022/05/07 18:29:37;;;;;;;;;;;;;;;-140.72;100.00;52386.81;5074454;28;19921;-67
2022/05/07 18:32:03;;;;;;;;;;;;;;;-140.72;100.00;52421.28;5073160;28;19917;-67
2022/05/07 18:34:28;;;;;;;;;;;;;;;-140.72;100.00;52398.97;5081549;28;20340;-67
2022/05/07 18:45:06;;;;;;;;;;;;;;;-140.72;100.00;52437.53;5074277;28;19955;-67
2022/05/07 18:47:33;;;;;;;;;;;;;;;-140.72;100.00;52396.94;5094566;28;19916;-67
2022/05/07 18:49:58;;;;;;;;;;;;;;;-140.72;100.00;52455.78;5109605;28;19969;-66
2022/05/07 18:52:24;;;;;;;;;;;;;;;-140.72;100.00;52415.22;5073489;28;19916;-67
2022/05/07 18:54:49;;;;;;;;;;;;;;;-140.72;100.00;52431.44;5074977;28;19931;-69
2022/05/07 18:59:59;;;;;;;;;;;;;;;-140.72;100.00;52453.75;5080821;28;20010;-69
2022/05/07 19:02:25;;;;;;;;;;;;;;;-140.72;100.00;52435.50;5075641;28;19916;-68
2022/05/07 19:04:50;;;;;;;;;;;;;;;-140.72;100.00;52413.19;5077194;28;19983;-68
2022/05/07 19:07:16;;;;;;;;;;;;;;;-140.72;100.00;52398.97;5078085;28;19967;-68
2022/05/07 19:09:41;;;;;;;;;;;;;;;-140.72;100.00;52419.28;5075226;28;19939;-68
2022/05/07 19:12:06;;;;;;;;;;;;;;;-140.72;100.00;52427.38;5075714;28;19928;-68
2022/05/07 19:14:31;;;;;;;;;;;;;;;-140.72;100.00;52415.22;5074122;28;19932;-68
2022/05/07 19:16:57;;;;;;;;;;;;;;;-140.72;100.00;52443.63;5075183;28;20255;-67
2022/05/07 19:19:23;;;;;;;;;;;;;;;-140.72;100.00;52453.75;5075945;28;19916;-69
2022/05/07 19:21:50;;;;;;;;;;;;;;;-140.72;100.00;52459.84;5080513;28;19973;-67
2022/05/07 19:24:16;;;;;;;;;;;;;;;-140.72;100.00;52449.72;5081147;28;19916;-68
2022/05/07 19:26:41;;;;;;;;;;;;;;;-140.72;100.00;52439.56;5082483;28;20359;-69
2022/05/07 19:29:06;;;;;;;;;;;;;;;-140.72;100.00;52463.91;5083128;28;19935;-66
2022/05/07 19:31:31;;;;;;;;;;;;;;;-140.72;100.00;52437.53;5079565;28;19927;-67
2022/05/07 19:33:58;;;;;;;;;;;;;;;-140.72;100.00;52447.69;5080538;28;20350;-66
2022/05/07 19:36:23;;;;;;;;;;;;;;;-140.72;100.00;52472.03;5070786;28;20436;-66
2022/05/07 19:38:48;;;;;;;;;;;;;;;-140.72;100.00;52431.44;5085214;28;19920;-68
2022/05/07 19:41:16;;;;;;;;;;;;;;;-140.72;100.00;52496.38;5081747;28;19966;-66
2022/05/07 19:43:41;;;;;;;;;;;;;;;-140.72;100.00;52476.09;5076280;28;19920;-67
2022/05/07 19:46:06;;;;;;;;;;;;;;;-140.72;100.00;52478.13;5085950;28;20019;-68
2022/05/07 19:48:31;;;;;;;;;;;;;;;-140.72;100.00;52486.22;5082111;28;19955;-67
2022/05/07 19:50:57;;;;;;;;;;;;;;;-140.72;100.00;52427.38;5075744;28;20363;-66
2022/05/07 19:53:23;;;;;;;;;;;;;;;-140.72;100.00;52470.00;5072342;28;19974;-67
2022/05/07 19:55:52;;;;;;;;;;;;;;;-140.72;100.00;52488.25;5075298;28;19924;-67
2022/05/07 19:58:18;;;;;;;;;;;;;;;-140.72;100.00;52449.72;5085016;28;19924;-66
2022/05/07 20:00:44;;;;;;;;;;;;;;;-140.72;100.00;52480.16;5075169;28;19916;-66
2022/05/07 20:03:09;;;;;;;;;;;;;;;-140.72;100.00;52459.84;5080138;28;19916;-67
2022/05/07 20:05:34;;;;;;;;;;;;;;;-140.72;100.00;52488.25;5083118;28;20027;-66
2022/05/07 20:08:00;;;;;;;;;;;;;;;-140.72;100.00;52461.88;5077629;28;19924;-66
2022/05/07 20:10:25;;;;;;;;;;;;;;;-140.72;100.00;52502.47;5076657;28;19927;-67
2022/05/07 20:12:54;;;;;;;;;;;;;;;-140.72;100.00;52492.31;5080382;28;20023;-67
2022/05/07 20:15:19;;;;;;;;;;;;;;;-140.72;100.00;52478.13;5086116;28;20304;-66
2022/05/07 20:17:44;;;;;;;;;;;;;;;-140.72;100.00;52465.94;5089942;28;19950;-66
2022/05/07 20:20:10;;;;;;;;;;;;;;;-140.72;100.00;52520.72;5078977;28;19930;-66
2022/05/07 20:22:35;;;;;;;;;;;;;;;-140.72;100.00;52472.03;5075964;28;19923;-66
2022/05/07 20:25:00;;;;;;;;;;;;;;;-140.72;100.00;52498.41;5076679;28;20298;-66
2022/05/07 20:27:25;;;;;;;;;;;;;;;-140.72;100.00;52484.19;5076835;28;20399;-67
2022/05/07 20:29:51;;;;;;;;;;;;;;;-140.72;100.00;52488.25;5086264;28;19916;-67
2022/05/07 20:32:16;;;;;;;;;;;;;;;-140.72;100.00;52472.03;5079657;28;19920;-68
2022/05/07 20:34:41;;;;;;;;;;;;;;;-140.72;100.00;52488.25;5096230;28;19929;-66
2022/05/07 20:37:07;;;;;;;;;;;;;;;-140.72;100.00;52508.56;5096124;28;19916;-66
2022/05/07 20:39:34;;;;;;;;;;;;;;;-140.72;100.00;52467.97;5088616;28;19920;-66
2022/05/07 20:41:59;;;;;;;;;;;;;;;-140.72;100.00;52504.50;5074506;28;19927;-66
2022/05/07 20:47:09;;;;;;;;;;;;;;;-140.72;100.00;52492.31;5094164;28;19958;-67
2022/05/07 20:49:35;;;;;;;;;;;;;;;-140.72;100.00;52467.97;5079845;28;19974;-66
2022/05/07 20:52:00;;;;;;;;;;;;;;;-140.72;100.00;52474.06;5074518;28;19917;-67
2022/05/07 20:54:27;;;;;;;;;;;;;;;-140.72;100.00;52504.50;5085930;28;19920;-67
2022/05/07 20:56:52;;;;;;;;;;;;;;;-140.72;100.00;52504.50;5078059;28;19963;-66
2022/05/07 20:59:18;;;;;;;;;;;;;;;-140.72;100.00;52541.03;5074485;28;20379;-67
2022/05/07 21:01:48;;;;;;;;;;;;;;;-140.72;100.00;52504.50;5084953;28;20375;-66
2022/05/07 21:04:15;;;;;;;;;;;;;;;-140.72;100.00;52500.44;5096222;28;19920;-66
2022/05/07 21:06:40;;;;;;;;;;;;;;;-140.72;100.00;52512.59;5095661;28;19927;-67
2022/05/07 21:09:06;;;;;;;;;;;;;;;-140.72;100.00;52470.00;5095969;28;19920;-67
2022/05/07 21:11:31;;;;;;;;;;;;;;;-140.72;100.00;52488.25;5093327;28;20260;-67
2022/05/07 21:13:57;;;;;;;;;;;;;;;-140.72;100.00;52496.38;5095256;28;19916;-66
2022/05/07 21:16:22;;;;;;;;;;;;;;;-140.72;100.00;52496.38;5077339;28;19921;-66
2022/05/07 21:18:47;;;;;;;;;;;;;;;-140.72;100.00;52496.38;5075351;28;19963;-66
2022/05/07 21:21:12;;;;;;;;;;;;;;;-140.72;100.00;52500.44;5074121;28;20006;-67
2022/05/07 21:23:38;;;;;;;;;;;;;;;-140.72;100.00;52541.03;5079185;28;19956;-67
2022/05/07 21:28:47;;;;;;;;;;;;;;;-140.72;100.00;52502.47;5082380;28;20296;-68
2022/05/07 21:31:12;;;;;;;;;;;;;;;-140.72;100.00;52500.44;5082761;28;20016;-67
2022/05/07 21:33:38;;;;;;;;;;;;;;;-140.72;100.00;52532.91;5082616;28;20012;-67
2022/05/07 21:36:03;;;;;;;;;;;;;;;-140.72;100.00;52524.78;5086185;28;20019;-67
2022/05/07 21:38:29;;;;;;;;;;;;;;;-140.72;100.00;52539.00;5099036;28;19955;-66
2022/05/07 21:40:58;;;;;;;;;;;;;;;-140.72;100.00;52553.19;5098324;28;20404;-67
2022/05/07 21:43:25;;;;;;;;;;;;;;;-140.72;100.00;52510.59;5095170;28;19917;-66
2022/05/07 21:45:51;;;;;;;;;;;;;;;-140.72;100.00;52547.09;5113392;28;20037;-67
2022/05/07 21:48:16;;;;;;;;;;;;;;;-140.72;100.00;52532.91;5105338;28;19917;-66
2022/05/07 21:53:06;;;;;;;;;;;;;;;-140.72;100.00;52508.56;5097605;28;19937;-67
2022/05/07 21:55:32;;;;;;;;;;;;;;;-140.72;100.00;52494.34;5082538;28;19920;-67
2022/05/07 21:57:57;;;;;;;;;;;;;;;-140.72;100.00;52545.06;5082242;28;20268;-67
2022/05/07 22:00:43;;;;;;;;;;;;;;;-140.72;100.00;52532.91;5074561;28;19923;-67
2022/05/07 22:03:08;;;;;;;;;;;;;;;-140.72;100.00;52532.91;5073331;28;19924;-67
2022/05/07 22:05:34;;;;;;;;;;;;;;;-140.72;100.00;52547.09;5082270;28;19916;-66
2022/05/07 22:07:59;;;;;;;;;;;;;;;-140.72;100.00;52541.03;5080203;28;19927;-67
2022/05/07 22:10:24;;;;;;;;;;;;;;;-140.72;100.00;52534.94;5089809;28;20390;-67
2022/05/07 22:12:49;;;;;;;;;;;;;;;-140.72;100.00;52559.28;5077577;28;20407;-66
2022/05/07 22:15:14;;;;;;;;;;;;;;;-140.72;100.00;52553.19;5077957;28;19916;-66
2022/05/07 22:17:40;;;;;;;;;;;;;;;-140.72;100.00;52541.03;5077138;28;19927;-67
2022/05/07 22:20:06;;;;;;;;;;;;;;;-140.72;100.00;52553.19;5086991;28;19963;-67
2022/05/07 22:22:31;;;;;;;;;;;;;;;-140.72;100.00;52547.09;5078965;28;19956;-66
2022/05/07 22:24:56;;;;;;;;;;;;;;;-140.72;100.00;52583.63;5084853;28;20387;-67
2022/05/07 22:27:22;;;;;;;;;;;;;;;-140.72;100.00;52539.00;5083672;28;20350;-67
2022/05/07 22:29:47;;;;;;;;;;;;;;;-140.72;100.00;52551.16;5081282;28;19927;-67
2022/05/07 22:32:12;;;;;;;;;;;;;;;-140.72;100.00;52569.44;5083236;28;19917;-67
2022/05/07 22:34:37;;;;;;;;;;;;;;;-140.72;100.00;52587.69;5079738;28;19996;-67
2022/05/07 22:37:03;;;;;;;;;;;;;;;-140.72;100.00;52543.03;5075879;28;19974;-68
2022/05/07 22:39:28;;;;;;;;;;;;;;;-140.72;100.00;52561.31;5080182;28;19982;-67
2022/05/07 22:41:53;;;;;;;;;;;;;;;-140.72;100.00;52543.03;5076125;28;19920;-67
2022/05/07 22:44:18;;;;;;;;;;;;;;;-140.72;100.00;52551.16;5081918;28;19916;-67
2022/05/07 22:46:44;;;;;;;;;;;;;;;-140.72;100.00;52541.03;5082716;28;19916;-67
2022/05/07 22:49:09;;;;;;;;;;;;;;;-140.72;100.00;52601.91;5085065;28;19916;-67
2022/05/07 22:51:34;;;;;;;;;;;;;;;-140.72;100.00;52536.97;5079234;28;19920;-67
2022/05/07 22:53:59;;;;;;;;;;;;;;;-140.72;100.00;52539.00;5080760;28;19924;-68
2022/05/07 22:56:24;;;;;;;;;;;;;;;-140.72;100.00;52551.16;5084349;28;19952;-68
2022/05/07 22:58:54;;;;;;;;;;;;;;;-140.72;100.00;52520.72;5086046;28;19923;-68
2022/05/07 23:01:19;;;;;;;;;;;;;;;-140.72;100.00;52563.34;5081981;28;20276;-67
2022/05/07 23:03:44;;;;;;;;;;;;;;;-140.72;100.00;52524.78;5083618;28;20003;-67
2022/05/07 23:06:10;;;;;;;;;;;;;;;-140.72;100.00;52559.28;5074521;28;20015;-68
2022/05/07 23:08:35;;;;;;;;;;;;;;;-140.72;100.00;52573.50;5083612;28;20340;-68
2022/05/07 23:11:01;;;;;;;;;;;;;;;-140.72;100.00;52514.63;5078167;28;19916;-68
2022/05/07 23:13:26;;;;;;;;;;;;;;;-140.72;100.00;52591.75;5079573;28;19960;-68
2022/05/07 23:15:51;;;;;;;;;;;;;;;-140.72;100.00;52561.31;5083232;28;20424;-68
2022/05/07 23:18:16;;;;;;;;;;;;;;;-140.72;100.00;52536.97;5081804;28;19920;-67
2022/05/07 23:20:41;;;;;;;;;;;;;;;-140.72;100.00;52536.97;5078288;28;19939;-67
2022/05/07 23:23:07;;;;;;;;;;;;;;;-140.72;100.00;52545.06;5077623;28;19973;-67
2022/05/07 23:25:33;;;;;;;;;;;;;;;-140.72;100.00;52549.13;5083089;28;19920;-68
2022/05/07 23:27:59;;;;;;;;;;;;;;;-140.72;100.00;52557.25;5094404;28;19923;-67
2022/05/07 23:30:25;;;;;;;;;;;;;;;-140.72;100.00;52557.25;5083609;28;19917;-68
2022/05/07 23:32:50;;;;;;;;;;;;;;;-140.72;100.00;52536.97;5074779;28;19924;-67
2022/05/07 23:35:15;;;;;;;;;;;;;;;-140.72;100.00;52557.25;5086714;28;19916;-67
2022/05/07 23:37:40;;;;;;;;;;;;;;;-140.72;100.00;52559.28;5075052;28;19920;-67
2022/05/07 23:40:08;;;;;;;;;;;;;;;-140.72;100.00;52536.97;5076946;28;20012;-68
2022/05/07 23:42:33;;;;;;;;;;;;;;;-140.72;100.00;52534.94;5077602;28;19917;-68
2022/05/07 23:44:58;;;;;;;;;;;;;;;-140.72;100.00;52549.13;5077957;28;19947;-69
2022/05/07 23:47:23;;;;;;;;;;;;;;;-140.72;100.00;52549.13;5073885;28;19923;-68
2022/05/07 23:49:48;;;;;;;;;;;;;;;-140.72;100.00;52587.69;5077378;28;19916;-68
2022/05/07 23:52:14;;;;;;;;;;;;;;;-140.72;100.00;52559.28;5083071;28;19917;-67
2022/05/07 23:54:39;;;;;;;;;;;;;;;-140.72;100.00;52553.19;5081795;28;20302;-67
2022/05/07 23:57:05;;;;;;;;;;;;;;;-140.72;100.00;52567.41;5083114;28;20290;-67
2022/05/07 23:59:30;;;;;;;;;;;;;;;-140.72;100.00;52569.44;5079994;28;20426;-67
